sensor_id;sensor_type;location;lat;lon;timestamp;pressure;altitude;pressure_sealevel;temperature;humidity
77587;BME280;66744;49.716;17.158;2023-01-15T00:00:03;98685.19;;;7.30;66.65
77587;BME280;66744;49.716;17.158;2023-01-15T00:00:11;98685.59;;;7.32;66.91
77587;BME280;66744;49.716;17.158;2023-01-15T00:00:20;98686.72;;;7.31;66.70
77587;BME280;66744;49.716;17.158;2023-01-15T00:00:46;98687.16;;;7.33;66.83
77587;BME280;66744;49.716;17.158;2023-01-15T00:01:23;98683.63;;;7.29;66.80
77587;BME280;66744;49.716;17.158;2023-01-15T00:01:32;98686.34;;;7.29;67.11
77587;BME280;66744;49.716;17.158;2023-01-15T00:01:39;98685.97;;;7.30;66.86
77587;BME280;66744;49.716;17.158;2023-01-15T00:01:46;98685.19;;;7.30;66.77
77587;BME280;66744;49.716;17.158;2023-01-15T00:01:53;98681.69;;;7.29;66.97
77587;BME280;66744;49.716;17.158;2023-01-15T00:01:59;98679.75;;;7.30;66.93
77587;BME280;66744;49.716;17.158;2023-01-15T00:02:05;98687.91;;;7.30;67.17
77587;BME280;66744;49.716;17.158;2023-01-15T00:02:11;98684.41;;;7.29;66.88
77587;BME280;66744;49.716;17.158;2023-01-15T00:02:21;98683.63;;;7.29;66.92
77587;BME280;66744;49.716;17.158;2023-01-15T00:02:29;98686.34;;;7.29;67.24
77587;BME280;66744;49.716;17.158;2023-01-15T00:02:36;98694.16;;;7.30;67.24
77587;BME280;66744;49.716;17.158;2023-01-15T00:02:42;98693.34;;;7.30;66.91
77587;BME280;66744;49.716;17.158;2023-01-15T00:02:48;98692.56;;;7.29;66.91
77587;BME280;66744;49.716;17.158;2023-01-15T00:02:55;98696.88;;;7.30;66.73
77587;BME280;66744;49.716;17.158;2023-01-15T00:03:01;98694.50;;;7.29;67.40
77587;BME280;66744;49.716;17.158;2023-01-15T00:03:07;98685.56;;;7.28;67.34
77587;BME280;66744;49.716;17.158;2023-01-15T00:03:13;98690.25;;;7.28;67.11
77587;BME280;66744;49.716;17.158;2023-01-15T00:03:20;98692.97;;;7.28;67.15
77587;BME280;66744;49.716;17.158;2023-01-15T00:03:26;98699.16;;;7.28;67.43
77587;BME280;66744;49.716;17.158;2023-01-15T00:03:33;98691.78;;;7.29;67.27
77587;BME280;66744;49.716;17.158;2023-01-15T00:03:39;98700.34;;;7.27;67.16
77587;BME280;66744;49.716;17.158;2023-01-15T00:03:45;98695.69;;;7.28;67.29
77587;BME280;66744;49.716;17.158;2023-01-15T00:03:53;98702.28;;;7.27;67.06
77587;BME280;66744;49.716;17.158;2023-01-15T00:04:00;98685.97;;;7.27;66.98
77587;BME280;66744;49.716;17.158;2023-01-15T00:04:10;98687.88;;;7.26;67.48
77587;BME280;66744;49.716;17.158;2023-01-15T00:04:17;98682.44;;;7.26;66.99
77587;BME280;66744;49.716;17.158;2023-01-15T00:04:23;98684.00;;;7.27;67.56
77587;BME280;66744;49.716;17.158;2023-01-15T00:04:29;98682.44;;;7.26;67.23
77587;BME280;66744;49.716;17.158;2023-01-15T00:04:35;98687.09;;;7.26;67.39
77587;BME280;66744;49.716;17.158;2023-01-15T00:04:41;98696.06;;;7.26;67.23
77587;BME280;66744;49.716;17.158;2023-01-15T00:04:50;98673.91;;;7.24;66.97
77587;BME280;66744;49.716;17.158;2023-01-15T00:04:56;98683.59;;;7.25;67.11
77587;BME280;66744;49.716;17.158;2023-01-15T00:05:03;98691.75;;;7.25;66.97
77587;BME280;66744;49.716;17.158;2023-01-15T00:05:10;98681.28;;;7.24;67.12
77587;BME280;66744;49.716;17.158;2023-01-15T00:05:16;98675.81;;;7.24;67.00
77587;BME280;66744;49.716;17.158;2023-01-15T00:05:22;98685.94;;;7.23;66.69
77587;BME280;66744;49.716;17.158;2023-01-15T00:05:28;98687.50;;;7.24;67.10
77587;BME280;66744;49.716;17.158;2023-01-15T00:05:35;98690.22;;;7.24;66.99
77587;BME280;66744;49.716;17.158;2023-01-15T00:05:41;98679.34;;;7.24;66.77
77587;BME280;66744;49.716;17.158;2023-01-15T00:05:47;98679.34;;;7.24;67.05
77587;BME280;66744;49.716;17.158;2023-01-15T00:05:53;98679.34;;;7.24;67.22
77587;BME280;66744;49.716;17.158;2023-01-15T00:06:02;98685.94;;;7.23;67.09
77587;BME280;66744;49.716;17.158;2023-01-15T00:06:08;98684.00;;;7.24;66.91
77587;BME280;66744;49.716;17.158;2023-01-15T00:06:16;98683.59;;;7.22;67.15
77587;BME280;66744;49.716;17.158;2023-01-15T00:06:23;98680.50;;;7.20;66.81
77587;BME280;66744;49.716;17.158;2023-01-15T00:06:31;98680.09;;;7.21;67.01
77587;BME280;66744;49.716;17.158;2023-01-15T00:06:41;98679.31;;;7.21;67.29
77587;BME280;66744;49.716;17.158;2023-01-15T00:06:49;98678.16;;;7.22;67.51
77587;BME280;66744;49.716;17.158;2023-01-15T00:06:55;98679.69;;;7.23;67.25
77587;BME280;66744;49.716;17.158;2023-01-15T00:07:01;98680.50;;;7.23;67.14
77587;BME280;66744;49.716;17.158;2023-01-15T00:07:09;98686.31;;;7.25;67.16
77587;BME280;66744;49.716;17.158;2023-01-15T00:07:15;98679.34;;;7.24;67.18
77587;BME280;66744;49.716;17.158;2023-01-15T00:07:21;98670.38;;;7.24;67.16
77587;BME280;66744;49.716;17.158;2023-01-15T00:07:28;98681.66;;;7.26;67.12
77587;BME280;66744;49.716;17.158;2023-01-15T00:07:35;98677.78;;;7.27;67.27
77587;BME280;66744;49.716;17.158;2023-01-15T00:07:41;98672.34;;;7.27;67.06
77587;BME280;66744;49.716;17.158;2023-01-15T00:07:48;98680.91;;;7.29;67.04
77587;BME280;66744;49.716;17.158;2023-01-15T00:07:56;98679.75;;;7.30;66.65
77587;BME280;66744;49.716;17.158;2023-01-15T00:08:02;98674.31;;;7.30;67.26
77587;BME280;66744;49.716;17.158;2023-01-15T00:08:08;98683.25;;;7.30;67.17
77587;BME280;66744;49.716;17.158;2023-01-15T00:08:14;98683.25;;;7.30;66.96
77587;BME280;66744;49.716;17.158;2023-01-15T00:08:21;98675.09;;;7.30;66.86
77587;BME280;66744;49.716;17.158;2023-01-15T00:08:27;98678.97;;;7.29;66.74
77587;BME280;66744;49.716;17.158;2023-01-15T00:08:34;98675.47;;;7.29;66.59
77587;BME280;66744;49.716;17.158;2023-01-15T00:08:40;98678.19;;;7.29;66.98
77587;BME280;66744;49.716;17.158;2023-01-15T00:08:47;98680.91;;;7.29;66.92
77587;BME280;66744;49.716;17.158;2023-01-15T00:08:54;98680.91;;;7.29;66.88
77587;BME280;66744;49.716;17.158;2023-01-15T00:09:00;98677.41;;;7.28;66.97
77587;BME280;66744;49.716;17.158;2023-01-15T00:09:08;98678.19;;;7.29;67.15
77587;BME280;66744;49.716;17.158;2023-01-15T00:09:17;98684.41;;;7.29;66.78
77587;BME280;66744;49.716;17.158;2023-01-15T00:09:23;98686.72;;;7.31;66.89
77587;BME280;66744;49.716;17.158;2023-01-15T00:09:29;98679.75;;;7.30;66.66
77587;BME280;66744;49.716;17.158;2023-01-15T00:09:35;98678.19;;;7.29;66.91
77587;BME280;66744;49.716;17.158;2023-01-15T00:09:42;98676.25;;;7.29;66.63
77587;BME280;66744;49.716;17.158;2023-01-15T00:09:48;98673.53;;;7.29;66.58
77587;BME280;66744;49.716;17.158;2023-01-15T00:09:55;98676.25;;;7.29;66.56
77587;BME280;66744;49.716;17.158;2023-01-15T00:10:01;98679.75;;;7.30;66.78
77587;BME280;66744;49.716;17.158;2023-01-15T00:10:08;98686.72;;;7.31;66.76
77587;BME280;66744;49.716;17.158;2023-01-15T00:10:14;98683.66;;;7.32;66.99
77587;BME280;66744;49.716;17.158;2023-01-15T00:10:21;98684.00;;;7.31;66.78
77587;BME280;66744;49.716;17.158;2023-01-15T00:10:27;98684.78;;;7.31;66.63
77587;BME280;66744;49.716;17.158;2023-01-15T00:10:34;98686.38;;;7.32;66.47
77587;BME280;66744;49.716;17.158;2023-01-15T00:10:40;98677.41;;;7.32;66.83
77587;BME280;66744;49.716;17.158;2023-01-15T00:10:46;98677.41;;;7.32;66.83
77587;BME280;66744;49.716;17.158;2023-01-15T00:10:53;98674.31;;;7.33;66.54
77587;BME280;66744;49.716;17.158;2023-01-15T00:11:02;98678.59;;;7.34;66.87
77587;BME280;66744;49.716;17.158;2023-01-15T00:11:08;98684.03;;;7.34;66.62
77587;BME280;66744;49.716;17.158;2023-01-15T00:11:16;98678.59;;;7.34;66.64
77587;BME280;66744;49.716;17.158;2023-01-15T00:11:22;98678.19;;;7.32;66.54
77587;BME280;66744;49.716;17.158;2023-01-15T00:11:28;98677.06;;;7.33;66.42
77587;BME280;66744;49.716;17.158;2023-01-15T00:11:35;98675.84;;;7.31;66.58
77587;BME280;66744;49.716;17.158;2023-01-15T00:11:41;98675.47;;;7.32;66.71
77587;BME280;66744;49.716;17.158;2023-01-15T00:11:47;98682.06;;;7.31;66.73
77587;BME280;66744;49.716;17.158;2023-01-15T00:11:53;98677.41;;;7.32;66.65
77587;BME280;66744;49.716;17.158;2023-01-15T00:12:00;98680.94;;;7.32;66.87
77587;BME280;66744;49.716;17.158;2023-01-15T00:12:07;98666.94;;;7.30;66.66
77587;BME280;66744;49.716;17.158;2023-01-15T00:12:13;98664.59;;;7.32;67.02
77587;BME280;66744;49.716;17.158;2023-01-15T00:12:20;98670.03;;;7.32;66.53
77587;BME280;66744;49.716;17.158;2023-01-15T00:12:26;98672.75;;;7.32;66.88
77587;BME280;66744;49.716;17.158;2023-01-15T00:12:32;98670.81;;;7.33;66.72
77587;BME280;66744;49.716;17.158;2023-01-15T00:12:38;98675.47;;;7.32;66.86
77587;BME280;66744;49.716;17.158;2023-01-15T00:12:44;98670.03;;;7.32;66.77
77587;BME280;66744;49.716;17.158;2023-01-15T00:12:50;98671.59;;;7.33;66.90
77587;BME280;66744;49.716;17.158;2023-01-15T00:12:57;98666.91;;;7.34;66.47
77587;BME280;66744;49.716;17.158;2023-01-15T00:13:03;98674.31;;;7.33;66.37
77587;BME280;66744;49.716;17.158;2023-01-15T00:13:09;98677.06;;;7.33;66.73
77587;BME280;66744;49.716;17.158;2023-01-15T00:13:16;98671.59;;;7.33;66.43
77587;BME280;66744;49.716;17.158;2023-01-15T00:13:22;98670.03;;;7.32;66.44
77587;BME280;66744;49.716;17.158;2023-01-15T00:13:28;98677.41;;;7.32;66.23
77587;BME280;66744;49.716;17.158;2023-01-15T00:13:35;98674.69;;;7.32;66.51
77587;BME280;66744;49.716;17.158;2023-01-15T00:13:41;98675.09;;;7.34;66.84
77587;BME280;66744;49.716;17.158;2023-01-15T00:13:48;98665.75;;;7.31;66.00
77587;BME280;66744;49.716;17.158;2023-01-15T00:13:55;98668.47;;;7.31;66.66
77587;BME280;66744;49.716;17.158;2023-01-15T00:14:01;98671.59;;;7.30;66.48
77587;BME280;66744;49.716;17.158;2023-01-15T00:14:08;98666.13;;;7.30;66.66
77587;BME280;66744;49.716;17.158;2023-01-15T00:14:14;98665.34;;;7.29;66.64
77587;BME280;66744;49.716;17.158;2023-01-15T00:14:20;98665.34;;;7.29;66.40
77587;BME280;66744;49.716;17.158;2023-01-15T00:14:26;98667.69;;;7.31;66.55
77587;BME280;66744;49.716;17.158;2023-01-15T00:14:33;98666.13;;;7.30;66.70
77587;BME280;66744;49.716;17.158;2023-01-15T00:14:39;98671.59;;;7.30;66.62
77587;BME280;66744;49.716;17.158;2023-01-15T00:14:45;98663.41;;;7.30;66.35
77587;BME280;66744;49.716;17.158;2023-01-15T00:14:52;98671.19;;;7.31;66.57
77587;BME280;66744;49.716;17.158;2023-01-15T00:14:58;98668.88;;;7.30;66.18
77587;BME280;66744;49.716;17.158;2023-01-15T00:15:05;98670.78;;;7.29;66.58
77587;BME280;66744;49.716;17.158;2023-01-15T00:15:11;98678.19;;;7.29;66.25
77587;BME280;66744;49.716;17.158;2023-01-15T00:15:18;98675.47;;;7.29;66.88
77587;BME280;66744;49.716;17.158;2023-01-15T00:15:24;98673.91;;;7.28;66.94
77587;BME280;66744;49.716;17.158;2023-01-15T00:15:30;98675.47;;;7.29;66.71
77587;BME280;66744;49.716;17.158;2023-01-15T00:15:36;98673.91;;;7.28;66.96
77587;BME280;66744;49.716;17.158;2023-01-15T00:15:43;98671.19;;;7.28;66.96
77587;BME280;66744;49.716;17.158;2023-01-15T00:15:49;98674.66;;;7.28;67.09
77587;BME280;66744;49.716;17.158;2023-01-15T00:16:06;98674.66;;;7.28;66.65
77587;BME280;66744;49.716;17.158;2023-01-15T00:16:23;98668.06;;;7.29;67.17
77587;BME280;66744;49.716;17.158;2023-01-15T00:16:30;98668.88;;;7.30;66.88
77587;BME280;66744;49.716;17.158;2023-01-15T00:16:37;98670.78;;;7.29;67.16
77587;BME280;66744;49.716;17.158;2023-01-15T00:16:45;98663.41;;;7.30;66.68
77587;BME280;66744;49.716;17.158;2023-01-15T00:16:52;98672.38;;;7.30;67.00
77587;BME280;66744;49.716;17.158;2023-01-15T00:16:58;98673.13;;;7.31;66.88
77587;BME280;66744;49.716;17.158;2023-01-15T00:17:05;98663.41;;;7.30;66.82
77587;BME280;66744;49.716;17.158;2023-01-15T00:17:11;98665.34;;;7.29;66.80
77587;BME280;66744;49.716;17.158;2023-01-15T00:17:17;98677.03;;;7.30;66.77
77587;BME280;66744;49.716;17.158;2023-01-15T00:17:23;98669.63;;;7.27;66.83
77587;BME280;66744;49.716;17.158;2023-01-15T00:17:30;98667.69;;;7.27;67.25
77587;BME280;66744;49.716;17.158;2023-01-15T00:17:36;98668.47;;;7.28;66.66
77587;BME280;66744;49.716;17.158;2023-01-15T00:17:42;98671.19;;;7.28;66.91
77587;BME280;66744;49.716;17.158;2023-01-15T00:17:48;98671.56;;;7.26;66.73
77587;BME280;66744;49.716;17.158;2023-01-15T00:17:54;98664.19;;;7.27;67.04
77587;BME280;66744;49.716;17.158;2023-01-15T00:18:01;98657.94;;;7.26;67.14
77587;BME280;66744;49.716;17.158;2023-01-15T00:18:07;98656.03;;;7.27;66.92
77587;BME280;66744;49.716;17.158;2023-01-15T00:18:13;98671.19;;;7.28;67.18
77587;BME280;66744;49.716;17.158;2023-01-15T00:18:19;98665.75;;;7.28;67.11
77587;BME280;66744;49.716;17.158;2023-01-15T00:18:25;98661.06;;;7.28;67.33
77587;BME280;66744;49.716;17.158;2023-01-15T00:18:32;98663.78;;;7.28;66.96
77587;BME280;66744;49.716;17.158;2023-01-15T00:18:38;98655.25;;;7.30;66.95
77587;BME280;66744;49.716;17.158;2023-01-15T00:18:56;98658.75;;;7.30;66.86
77587;BME280;66744;49.716;17.158;2023-01-15T00:19:02;98662.63;;;7.29;66.78
77587;BME280;66744;49.716;17.158;2023-01-15T00:19:10;98663.41;;;7.30;66.76
77587;BME280;66744;49.716;17.158;2023-01-15T00:19:17;98658.75;;;7.30;67.17
77587;BME280;66744;49.716;17.158;2023-01-15T00:19:23;98662.25;;;7.31;66.70
77587;BME280;66744;49.716;17.158;2023-01-15T00:19:29;98666.94;;;7.30;66.34
77587;BME280;66744;49.716;17.158;2023-01-15T00:19:35;98670.41;;;7.31;66.36
77587;BME280;66744;49.716;17.158;2023-01-15T00:19:42;98675.09;;;7.30;66.90
77587;BME280;66744;49.716;17.158;2023-01-15T00:19:48;98663.78;;;7.28;66.74
77587;BME280;66744;49.716;17.158;2023-01-15T00:19:54;98675.47;;;7.29;66.76
77587;BME280;66744;49.716;17.158;2023-01-15T00:20:00;98663.41;;;7.30;67.00
77587;BME280;66744;49.716;17.158;2023-01-15T00:20:07;98668.88;;;7.30;66.74
77587;BME280;66744;49.716;17.158;2023-01-15T00:20:14;98656.41;;;7.29;66.79
77587;BME280;66744;49.716;17.158;2023-01-15T00:20:20;98658.75;;;7.30;66.98
77587;BME280;66744;49.716;17.158;2023-01-15T00:20:26;98665.75;;;7.31;66.51
77587;BME280;66744;49.716;17.158;2023-01-15T00:20:33;98669.25;;;7.32;66.66
77587;BME280;66744;49.716;17.158;2023-01-15T00:20:39;98664.59;;;7.32;66.53
77587;BME280;66744;49.716;17.158;2023-01-15T00:20:45;98661.09;;;7.32;66.06
77587;BME280;66744;49.716;17.158;2023-01-15T00:20:58;98667.28;;;7.29;66.76
77587;BME280;66744;49.716;17.158;2023-01-15T00:21:07;98675.47;;;7.29;66.77
77587;BME280;66744;49.716;17.158;2023-01-15T00:21:13;98662.25;;;7.27;66.75
77587;BME280;66744;49.716;17.158;2023-01-15T00:21:20;98663.03;;;7.28;66.78
77587;BME280;66744;49.716;17.158;2023-01-15T00:21:27;98663.78;;;7.28;67.41
77587;BME280;66744;49.716;17.158;2023-01-15T00:21:34;98665.75;;;7.28;66.68
77587;BME280;66744;49.716;17.158;2023-01-15T00:21:40;98665.75;;;7.28;67.07
77587;BME280;66744;49.716;17.158;2023-01-15T00:21:47;98667.69;;;7.27;67.05
77587;BME280;66744;49.716;17.158;2023-01-15T00:21:53;98654.06;;;7.27;67.12
77587;BME280;66744;49.716;17.158;2023-01-15T00:21:59;98660.31;;;7.28;67.18
77587;BME280;66744;49.716;17.158;2023-01-15T00:22:05;98665.75;;;7.28;67.04
77587;BME280;66744;49.716;17.158;2023-01-15T00:22:11;98664.56;;;7.29;66.92
77587;BME280;66744;49.716;17.158;2023-01-15T00:22:17;98661.47;;;7.27;66.99
77587;BME280;66744;49.716;17.158;2023-01-15T00:22:24;98655.22;;;7.26;66.97
77587;BME280;66744;49.716;17.158;2023-01-15T00:22:30;98659.53;;;7.27;66.79
77587;BME280;66744;49.716;17.158;2023-01-15T00:22:36;98667.69;;;7.27;67.20
77587;BME280;66744;49.716;17.158;2023-01-15T00:22:42;98664.19;;;7.27;67.36
77587;BME280;66744;49.716;17.158;2023-01-15T00:22:48;98662.59;;;7.26;67.27
77587;BME280;66744;49.716;17.158;2023-01-15T00:22:55;98666.50;;;7.25;67.05
77587;BME280;66744;49.716;17.158;2023-01-15T00:23:01;98663.00;;;7.24;67.06
77587;BME280;66744;49.716;17.158;2023-01-15T00:23:07;98664.53;;;7.25;67.24
77587;BME280;66744;49.716;17.158;2023-01-15T00:23:33;98676.22;;;7.26;67.39
77587;BME280;66744;49.716;17.158;2023-01-15T00:23:59;98660.28;;;7.24;67.63
77587;BME280;66744;49.716;17.158;2023-01-15T00:24:24;98659.50;;;7.24;67.21
77587;BME280;66744;49.716;17.158;2023-01-15T00:24:48;98661.06;;;7.25;67.45
77587;BME280;66744;49.716;17.158;2023-01-15T00:25:13;98663.41;;;7.26;67.29
77587;BME280;66744;49.716;17.158;2023-01-15T00:25:38;98664.53;;;7.25;67.02
77587;BME280;66744;49.716;17.158;2023-01-15T00:26:03;98655.63;;;7.25;67.68
77587;BME280;66744;49.716;17.158;2023-01-15T00:26:30;98659.88;;;7.26;67.04
77587;BME280;66744;49.716;17.158;2023-01-15T00:26:54;98662.59;;;7.26;66.87
77587;BME280;66744;49.716;17.158;2023-01-15T00:27:19;98659.88;;;7.26;67.29
77587;BME280;66744;49.716;17.158;2023-01-15T00:27:44;98657.94;;;7.23;67.56
77587;BME280;66744;49.716;17.158;2023-01-15T00:27:50;98664.16;;;7.23;67.62
77587;BME280;66744;49.716;17.158;2023-01-15T00:27:57;98648.22;;;7.22;67.82
77587;BME280;66744;49.716;17.158;2023-01-15T00:28:05;98650.16;;;7.21;67.72
77587;BME280;66744;49.716;17.158;2023-01-15T00:28:12;98652.88;;;7.21;67.83
77587;BME280;66744;49.716;17.158;2023-01-15T00:28:19;98647.44;;;7.21;68.06
77587;BME280;66744;49.716;17.158;2023-01-15T00:28:25;98655.59;;;7.21;67.66
77587;BME280;66744;49.716;17.158;2023-01-15T00:28:31;98648.22;;;7.22;67.34
77587;BME280;66744;49.716;17.158;2023-01-15T00:28:37;98649.00;;;7.22;67.15
77587;BME280;66744;49.716;17.158;2023-01-15T00:28:47;98651.72;;;7.22;67.22
77587;BME280;66744;49.716;17.158;2023-01-15T00:28:55;98654.44;;;7.22;67.42
77587;BME280;66744;49.716;17.158;2023-01-15T00:29:02;98656.75;;;7.20;67.29
77587;BME280;66744;49.716;17.158;2023-01-15T00:29:08;98647.44;;;7.21;67.79
77587;BME280;66744;49.716;17.158;2023-01-15T00:29:15;98650.16;;;7.21;67.45
77587;BME280;66744;49.716;17.158;2023-01-15T00:29:22;98655.59;;;7.21;67.56
77587;BME280;66744;49.716;17.158;2023-01-15T00:29:28;98654.03;;;7.20;67.39
77587;BME280;66744;49.716;17.158;2023-01-15T00:29:34;98650.56;;;7.20;67.33
77587;BME280;66744;49.716;17.158;2023-01-15T00:29:41;98650.56;;;7.20;67.93
77587;BME280;66744;49.716;17.158;2023-01-15T00:29:47;98653.28;;;7.20;67.75
77587;BME280;66744;49.716;17.158;2023-01-15T00:29:53;98656.75;;;7.20;67.51
77587;BME280;66744;49.716;17.158;2023-01-15T00:29:59;98651.31;;;7.20;67.40
77587;BME280;66744;49.716;17.158;2023-01-15T00:30:11;98652.50;;;7.19;67.62
77587;BME280;66744;49.716;17.158;2023-01-15T00:30:18;98654.03;;;7.20;67.80
77587;BME280;66744;49.716;17.158;2023-01-15T00:30:24;98656.00;;;7.20;67.62
77587;BME280;66744;49.716;17.158;2023-01-15T00:30:32;98657.53;;;7.21;67.90
77587;BME280;66744;49.716;17.158;2023-01-15T00:30:40;98652.50;;;7.19;67.98
77587;BME280;66744;49.716;17.158;2023-01-15T00:30:47;98656.00;;;7.20;68.48
77587;BME280;66744;49.716;17.158;2023-01-15T00:30:53;98654.03;;;7.20;68.11
77587;BME280;66744;49.716;17.158;2023-01-15T00:30:59;98657.94;;;7.19;67.72
77587;BME280;66744;49.716;17.158;2023-01-15T00:31:05;98653.28;;;7.20;67.60
77587;BME280;66744;49.716;17.158;2023-01-15T00:31:13;98658.31;;;7.21;67.44
77587;BME280;66744;49.716;17.158;2023-01-15T00:31:19;98650.94;;;7.22;67.41
77587;BME280;66744;49.716;17.158;2023-01-15T00:31:25;98654.44;;;7.22;67.42
77587;BME280;66744;49.716;17.158;2023-01-15T00:31:33;98658.31;;;7.21;67.64
77587;BME280;66744;49.716;17.158;2023-01-15T00:31:41;98654.81;;;7.21;67.83
77587;BME280;66744;49.716;17.158;2023-01-15T00:31:52;98653.28;;;7.27;67.27
77587;BME280;66744;49.716;17.158;2023-01-15T00:32:03;98652.50;;;7.26;66.50
77587;BME280;66744;49.716;17.158;2023-01-15T00:32:10;98654.44;;;7.26;67.11
77587;BME280;66744;49.716;17.158;2023-01-15T00:32:16;98657.56;;;7.24;67.07
77587;BME280;66744;49.716;17.158;2023-01-15T00:32:22;98654.06;;;7.24;67.07
77587;BME280;66744;49.716;17.158;2023-01-15T00:32:33;98654.44;;;7.22;67.21
77587;BME280;66744;49.716;17.158;2023-01-15T00:32:41;98645.91;;;7.24;67.52
77587;BME280;66744;49.716;17.158;2023-01-15T00:32:47;98653.28;;;7.23;66.76
77587;BME280;66744;49.716;17.158;2023-01-15T00:32:54;98649.75;;;7.23;67.34
77587;BME280;66744;49.716;17.158;2023-01-15T00:33:01;98652.50;;;7.23;67.79
77587;BME280;66744;49.716;17.158;2023-01-15T00:33:08;98643.94;;;7.21;67.10
77587;BME280;66744;49.716;17.158;2023-01-15T00:33:15;98647.84;;;7.20;67.38
77587;BME280;66744;49.716;17.158;2023-01-15T00:33:21;98643.16;;;7.20;67.37
77587;BME280;66744;49.716;17.158;2023-01-15T00:33:27;98647.81;;;7.23;67.36
77587;BME280;66744;49.716;17.158;2023-01-15T00:33:34;98649.00;;;7.22;67.42
77587;BME280;66744;49.716;17.158;2023-01-15T00:33:40;98647.03;;;7.23;67.45
77587;BME280;66744;49.716;17.158;2023-01-15T00:33:46;98652.88;;;7.21;67.88
77587;BME280;66744;49.716;17.158;2023-01-15T00:33:52;98648.22;;;7.22;67.16
77587;BME280;66744;49.716;17.158;2023-01-15T00:33:59;98644.72;;;7.21;67.59
77587;BME280;66744;49.716;17.158;2023-01-15T00:34:05;98640.06;;;7.22;67.53
77587;BME280;66744;49.716;17.158;2023-01-15T00:34:12;98645.50;;;7.22;67.58
77587;BME280;66744;49.716;17.158;2023-01-15T00:34:19;98647.44;;;7.21;67.35
77587;BME280;66744;49.716;17.158;2023-01-15T00:34:26;98640.44;;;7.20;67.94
77587;BME280;66744;49.716;17.158;2023-01-15T00:34:34;98645.50;;;7.22;67.65
77587;BME280;66744;49.716;17.158;2023-01-15T00:34:40;98640.44;;;7.20;67.57
77587;BME280;66744;49.716;17.158;2023-01-15T00:34:46;98647.06;;;7.19;67.48
77587;BME280;66744;49.716;17.158;2023-01-15T00:34:55;98648.59;;;7.20;67.57
77587;BME280;66744;49.716;17.158;2023-01-15T00:35:01;98646.66;;;7.21;68.33
77587;BME280;66744;49.716;17.158;2023-01-15T00:35:21;98650.56;;;7.20;67.67
77587;BME280;66744;49.716;17.158;2023-01-15T00:35:28;98643.91;;;7.17;68.18
77587;BME280;66744;49.716;17.158;2023-01-15T00:35:34;98641.97;;;7.18;67.68
77587;BME280;66744;49.716;17.158;2023-01-15T00:35:41;98643.91;;;7.17;67.99
77587;BME280;66744;49.716;17.158;2023-01-15T00:35:47;98638.47;;;7.17;67.87
77587;BME280;66744;49.716;17.158;2023-01-15T00:35:53;98647.41;;;7.18;67.84
77587;BME280;66744;49.716;17.158;2023-01-15T00:36:01;98643.53;;;7.19;67.61
77587;BME280;66744;49.716;17.158;2023-01-15T00:36:07;98637.31;;;7.18;67.82
77587;BME280;66744;49.716;17.158;2023-01-15T00:36:13;98639.25;;;7.18;67.91
77587;BME280;66744;49.716;17.158;2023-01-15T00:36:19;98634.59;;;7.18;67.77
77587;BME280;66744;49.716;17.158;2023-01-15T00:36:25;98640.81;;;7.19;67.58
77587;BME280;66744;49.716;17.158;2023-01-15T00:36:32;98636.56;;;7.21;67.72
77587;BME280;66744;49.716;17.158;2023-01-15T00:36:39;98642.00;;;7.21;67.56
77587;BME280;66744;49.716;17.158;2023-01-15T00:36:46;98630.31;;;7.21;67.61
77587;BME280;66744;49.716;17.158;2023-01-15T00:36:52;98638.50;;;7.21;67.73
77587;BME280;66744;49.716;17.158;2023-01-15T00:36:58;98641.59;;;7.19;67.36
77587;BME280;66744;49.716;17.158;2023-01-15T00:37:05;98643.53;;;7.19;67.92
77587;BME280;66744;49.716;17.158;2023-01-15T00:37:12;98635.38;;;7.19;67.64
77587;BME280;66744;49.716;17.158;2023-01-15T00:37:18;98648.19;;;7.18;67.73
77587;BME280;66744;49.716;17.158;2023-01-15T00:37:24;98639.66;;;7.16;67.73
77587;BME280;66744;49.716;17.158;2023-01-15T00:37:30;98641.19;;;7.17;67.72
77587;BME280;66744;49.716;17.158;2023-01-15T00:37:37;98637.31;;;7.18;68.04
77587;BME280;66744;49.716;17.158;2023-01-15T00:37:43;98640.03;;;7.18;67.75
77587;BME280;66744;49.716;17.158;2023-01-15T00:37:50;98633.81;;;7.18;67.91
77587;BME280;66744;49.716;17.158;2023-01-15T00:37:56;98643.91;;;7.17;67.94
77587;BME280;66744;49.716;17.158;2023-01-15T00:38:02;98642.38;;;7.16;68.09
77587;BME280;66744;49.716;17.158;2023-01-15T00:38:09;98643.53;;;7.15;68.19
77587;BME280;66744;49.716;17.158;2023-01-15T00:38:15;98633.81;;;7.10;67.80
77587;BME280;66744;49.716;17.158;2023-01-15T00:38:21;98634.59;;;7.11;67.61
77587;BME280;66744;49.716;17.158;2023-01-15T00:38:28;98629.50;;;7.09;67.65
77587;BME280;66744;49.716;17.158;2023-01-15T00:38:34;98629.16;;;7.11;68.15
77587;BME280;66744;49.716;17.158;2023-01-15T00:38:40;98629.16;;;7.11;68.08
77587;BME280;66744;49.716;17.158;2023-01-15T00:38:46;98630.28;;;7.10;67.54
77587;BME280;66744;49.716;17.158;2023-01-15T00:38:52;98631.06;;;7.10;67.88
77587;BME280;66744;49.716;17.158;2023-01-15T00:39:02;98624.44;;;7.11;68.13
77587;BME280;66744;49.716;17.158;2023-01-15T00:39:09;98637.31;;;7.11;68.13
77587;BME280;66744;49.716;17.158;2023-01-15T00:39:15;98630.69;;;7.12;67.96
77587;BME280;66744;49.716;17.158;2023-01-15T00:39:21;98638.06;;;7.11;67.51
77587;BME280;66744;49.716;17.158;2023-01-15T00:39:29;98631.88;;;7.11;67.56
77587;BME280;66744;49.716;17.158;2023-01-15T00:39:35;98630.28;;;7.10;67.89
77587;BME280;66744;49.716;17.158;2023-01-15T00:39:41;98624.84;;;7.10;67.89
77587;BME280;66744;49.716;17.158;2023-01-15T00:39:48;98631.44;;;7.09;67.93
77587;BME280;66744;49.716;17.158;2023-01-15T00:39:54;98622.91;;;7.10;67.55
77587;BME280;66744;49.716;17.158;2023-01-15T00:40:00;98633.81;;;7.10;67.52
77587;BME280;66744;49.716;17.158;2023-01-15T00:40:08;98625.63;;;7.10;68.32
77587;BME280;66744;49.716;17.158;2023-01-15T00:40:16;98622.91;;;7.10;67.93
77587;BME280;66744;49.716;17.158;2023-01-15T00:40:23;98635.72;;;7.10;67.80
77587;BME280;66744;49.716;17.158;2023-01-15T00:40:30;98627.97;;;7.08;67.93